sensor_id;sensor_type;location;lat;lon;timestamp;P1;durP1;ratioP1;P2;durP2;ratioP2
11267;SDS011;49397;47.474;9.416;2023-04-24T00:01:45;2.10;;;2.00;;
11267;SDS011;49397;47.474;9.416;2023-04-24T00:04:10;2.00;;;1.90;;
11267;SDS011;49397;47.474;9.416;2023-04-24T00:06:36;2.00;;;1.90;;
11267;SDS011;49397;47.474;9.416;2023-04-24T00:09:02;2.30;;;2.10;;
11267;SDS011;49397;47.474;9.416;2023-04-24T00:11:28;2.33;;;2.13;;
11267;SDS011;49397;47.474;9.416;2023-04-24T00:13:53;2.00;;;1.90;;
11267;SDS011;49397;47.474;9.416;2023-04-24T00:16:19;1.77;;;1.67;;
11267;SDS011;49397;47.474;9.416;2023-04-24T00:18:44;1.90;;;1.80;;
11267;SDS011;49397;47.474;9.416;2023-04-24T00:21:13;2.20;;;2.00;;
11267;SDS011;49397;47.474;9.416;2023-04-24T00:23:38;1.80;;;1.80;;
11267;SDS011;49397;47.474;9.416;2023-04-24T00:26:04;1.70;;;1.70;;
11267;SDS011;49397;47.474;9.416;2023-04-24T00:28:29;2.30;;;2.20;;
11267;SDS011;49397;47.474;9.416;2023-04-24T00:30:54;2.30;;;2.10;;
11267;SDS011;49397;47.474;9.416;2023-04-24T00:33:20;2.13;;;2.03;;
11267;SDS011;49397;47.474;9.416;2023-04-24T00:35:45;2.00;;;1.90;;
11267;SDS011;49397;47.474;9.416;2023-04-24T00:38:10;1.90;;;1.90;;
11267;SDS011;49397;47.474;9.416;2023-04-24T00:40:36;2.13;;;2.03;;
11267;SDS011;49397;47.474;9.416;2023-04-24T00:43:01;2.10;;;2.00;;
11267;SDS011;49397;47.474;9.416;2023-04-24T00:45:27;1.90;;;1.90;;
11267;SDS011;49397;47.474;9.416;2023-04-24T00:47:52;3.17;;;2.07;;
11267;SDS011;49397;47.474;9.416;2023-04-24T00:50:18;2.53;;;2.00;;
11267;SDS011;49397;47.474;9.416;2023-04-24T00:52:44;2.57;;;1.90;;
11267;SDS011;49397;47.474;9.416;2023-04-24T00:55:10;2.00;;;1.90;;
11267;SDS011;49397;47.474;9.416;2023-04-24T00:57:35;1.93;;;1.83;;
11267;SDS011;49397;47.474;9.416;2023-04-24T01:00:01;1.90;;;1.87;;
11267;SDS011;49397;47.474;9.416;2023-04-24T01:02:26;2.07;;;1.87;;
11267;SDS011;49397;47.474;9.416;2023-04-24T01:04:52;2.10;;;2.00;;
11267;SDS011;49397;47.474;9.416;2023-04-24T01:07:20;2.07;;;1.97;;
11267;SDS011;49397;47.474;9.416;2023-04-24T01:09:46;2.23;;;2.13;;
11267;SDS011;49397;47.474;9.416;2023-04-24T01:12:14;2.10;;;2.00;;
11267;SDS011;49397;47.474;9.416;2023-04-24T01:14:40;2.00;;;1.90;;
11267;SDS011;49397;47.474;9.416;2023-04-24T01:17:05;3.13;;;2.00;;
11267;SDS011;49397;47.474;9.416;2023-04-24T01:19:31;2.27;;;2.17;;
11267;SDS011;49397;47.474;9.416;2023-04-24T01:21:58;1.90;;;1.90;;
11267;SDS011;49397;47.474;9.416;2023-04-24T01:24:23;2.00;;;1.90;;
11267;SDS011;49397;47.474;9.416;2023-04-24T01:26:49;2.07;;;1.97;;
11267;SDS011;49397;47.474;9.416;2023-04-24T01:29:15;1.80;;;1.80;;
11267;SDS011;49397;47.474;9.416;2023-04-24T01:31:40;2.20;;;2.10;;
11267;SDS011;49397;47.474;9.416;2023-04-24T01:34:05;3.07;;;2.37;;
11267;SDS011;49397;47.474;9.416;2023-04-24T01:36:31;2.20;;;2.10;;
11267;SDS011;49397;47.474;9.416;2023-04-24T01:38:57;1.80;;;1.70;;
11267;SDS011;49397;47.474;9.416;2023-04-24T01:41:22;2.10;;;2.00;;
11267;SDS011;49397;47.474;9.416;2023-04-24T01:43:48;1.93;;;1.90;;
11267;SDS011;49397;47.474;9.416;2023-04-24T01:46:14;2.00;;;1.90;;
11267;SDS011;49397;47.474;9.416;2023-04-24T01:48:39;2.20;;;2.10;;
11267;SDS011;49397;47.474;9.416;2023-04-24T01:51:05;2.20;;;1.67;;
11267;SDS011;49397;47.474;9.416;2023-04-24T01:53:30;1.73;;;1.73;;
11267;SDS011;49397;47.474;9.416;2023-04-24T01:55:56;1.70;;;1.70;;
11267;SDS011;49397;47.474;9.416;2023-04-24T01:58:21;1.60;;;1.60;;
11267;SDS011;49397;47.474;9.416;2023-04-24T02:00:47;2.50;;;2.30;;
11267;SDS011;49397;47.474;9.416;2023-04-24T02:03:13;2.20;;;2.10;;
11267;SDS011;49397;47.474;9.416;2023-04-24T02:05:38;4.97;;;1.93;;
11267;SDS011;49397;47.474;9.416;2023-04-24T02:08:03;1.60;;;1.50;;
11267;SDS011;49397;47.474;9.416;2023-04-24T02:10:29;3.47;;;1.60;;
11267;SDS011;49397;47.474;9.416;2023-04-24T02:12:54;3.67;;;1.80;;
11267;SDS011;49397;47.474;9.416;2023-04-24T02:15:19;1.60;;;1.60;;
11267;SDS011;49397;47.474;9.416;2023-04-24T02:17:45;1.73;;;1.70;;
11267;SDS011;49397;47.474;9.416;2023-04-24T02:20:10;1.70;;;1.60;;
11267;SDS011;49397;47.474;9.416;2023-04-24T02:22:36;1.60;;;1.60;;
11267;SDS011;49397;47.474;9.416;2023-04-24T02:25:01;1.83;;;1.77;;
11267;SDS011;49397;47.474;9.416;2023-04-24T02:27:26;1.87;;;1.77;;
11267;SDS011;49397;47.474;9.416;2023-04-24T02:29:52;1.90;;;1.80;;
11267;SDS011;49397;47.474;9.416;2023-04-24T02:32:17;1.80;;;1.70;;
11267;SDS011;49397;47.474;9.416;2023-04-24T02:34:42;1.97;;;1.87;;
11267;SDS011;49397;47.474;9.416;2023-04-24T02:37:08;1.67;;;1.67;;
11267;SDS011;49397;47.474;9.416;2023-04-24T02:39:33;1.53;;;1.53;;
11267;SDS011;49397;47.474;9.416;2023-04-24T02:41:58;1.80;;;1.73;;
11267;SDS011;49397;47.474;9.416;2023-04-24T02:44:25;1.60;;;1.60;;
11267;SDS011;49397;47.474;9.416;2023-04-24T02:46:50;1.70;;;1.70;;
11267;SDS011;49397;47.474;9.416;2023-04-24T02:49:15;1.80;;;1.70;;
11267;SDS011;49397;47.474;9.416;2023-04-24T02:51:40;1.70;;;1.70;;
11267;SDS011;49397;47.474;9.416;2023-04-24T02:54:09;1.57;;;1.57;;
11267;SDS011;49397;47.474;9.416;2023-04-24T02:56:37;1.50;;;1.50;;
11267;SDS011;49397;47.474;9.416;2023-04-24T02:59:02;1.70;;;1.70;;
11267;SDS011;49397;47.474;9.416;2023-04-24T03:01:28;1.60;;;1.60;;
11267;SDS011;49397;47.474;9.416;2023-04-24T03:03:53;2.00;;;1.90;;
11267;SDS011;49397;47.474;9.416;2023-04-24T03:06:19;1.70;;;1.60;;
11267;SDS011;49397;47.474;9.416;2023-04-24T03:08:46;2.03;;;1.93;;
11267;SDS011;49397;47.474;9.416;2023-04-24T03:11:11;1.60;;;1.60;;
11267;SDS011;49397;47.474;9.416;2023-04-24T03:13:36;1.50;;;1.50;;
11267;SDS011;49397;47.474;9.416;2023-04-24T03:16:02;1.70;;;1.60;;
11267;SDS011;49397;47.474;9.416;2023-04-24T03:18:27;1.90;;;1.90;;
11267;SDS011;49397;47.474;9.416;2023-04-24T03:20:52;1.70;;;1.60;;
11267;SDS011;49397;47.474;9.416;2023-04-24T03:23:18;1.93;;;1.83;;
11267;SDS011;49397;47.474;9.416;2023-04-24T03:25:43;2.00;;;1.90;;
11267;SDS011;49397;47.474;9.416;2023-04-24T03:28:08;1.90;;;1.80;;
11267;SDS011;49397;47.474;9.416;2023-04-24T03:30:34;2.37;;;2.27;;
11267;SDS011;49397;47.474;9.416;2023-04-24T03:32:59;1.90;;;1.90;;
11267;SDS011;49397;47.474;9.416;2023-04-24T03:35:25;2.00;;;2.00;;
11267;SDS011;49397;47.474;9.416;2023-04-24T03:37:50;1.73;;;1.73;;
11267;SDS011;49397;47.474;9.416;2023-04-24T03:40:15;2.30;;;2.20;;
11267;SDS011;49397;47.474;9.416;2023-04-24T03:42:41;2.13;;;1.90;;
11267;SDS011;49397;47.474;9.416;2023-04-24T03:45:06;2.20;;;2.10;;
11267;SDS011;49397;47.474;9.416;2023-04-24T03:47:32;2.10;;;2.00;;
11267;SDS011;49397;47.474;9.416;2023-04-24T03:49:57;1.90;;;1.70;;
11267;SDS011;49397;47.474;9.416;2023-04-24T03:52:23;1.90;;;1.90;;
11267;SDS011;49397;47.474;9.416;2023-04-24T03:54:48;2.03;;;1.83;;
11267;SDS011;49397;47.474;9.416;2023-04-24T03:57:14;2.00;;;1.90;;
11267;SDS011;49397;47.474;9.416;2023-04-24T03:59:39;2.00;;;1.90;;
11267;SDS011;49397;47.474;9.416;2023-04-24T04:02:04;2.07;;;1.97;;
11267;SDS011;49397;47.474;9.416;2023-04-24T04:04:30;1.67;;;1.67;;
11267;SDS011;49397;47.474;9.416;2023-04-24T04:06:55;1.70;;;1.70;;
11267;SDS011;49397;47.474;9.416;2023-04-24T04:09:20;1.87;;;1.87;;
11267;SDS011;49397;47.474;9.416;2023-04-24T04:11:46;1.97;;;1.90;;
11267;SDS011;49397;47.474;9.416;2023-04-24T04:14:11;1.63;;;1.63;;
11267;SDS011;49397;47.474;9.416;2023-04-24T04:16:37;1.87;;;1.87;;
11267;SDS011;49397;47.474;9.416;2023-04-24T04:19:02;1.50;;;1.50;;
11267;SDS011;49397;47.474;9.416;2023-04-24T04:21:28;1.77;;;1.67;;
11267;SDS011;49397;47.474;9.416;2023-04-24T04:23:54;1.60;;;1.60;;
11267;SDS011;49397;47.474;9.416;2023-04-24T04:26:19;1.67;;;1.67;;
11267;SDS011;49397;47.474;9.416;2023-04-24T04:28:46;1.97;;;1.93;;
11267;SDS011;49397;47.474;9.416;2023-04-24T04:31:12;1.60;;;1.60;;
11267;SDS011;49397;47.474;9.416;2023-04-24T04:33:38;1.87;;;1.80;;
11267;SDS011;49397;47.474;9.416;2023-04-24T04:36:04;1.80;;;1.80;;
11267;SDS011;49397;47.474;9.416;2023-04-24T04:38:30;1.80;;;1.70;;
11267;SDS011;49397;47.474;9.416;2023-04-24T04:40:55;1.90;;;1.90;;
11267;SDS011;49397;47.474;9.416;2023-04-24T04:43:23;1.50;;;1.50;;
11267;SDS011;49397;47.474;9.416;2023-04-24T04:45:49;1.80;;;1.70;;
11267;SDS011;49397;47.474;9.416;2023-04-24T04:48:16;1.90;;;1.80;;
11267;SDS011;49397;47.474;9.416;2023-04-24T04:50:42;1.70;;;1.60;;
11267;SDS011;49397;47.474;9.416;2023-04-24T04:53:08;1.77;;;1.77;;
11267;SDS011;49397;47.474;9.416;2023-04-24T04:55:33;1.80;;;1.80;;
11267;SDS011;49397;47.474;9.416;2023-04-24T04:57:58;1.90;;;1.80;;
11267;SDS011;49397;47.474;9.416;2023-04-24T05:00:25;1.83;;;1.73;;
11267;SDS011;49397;47.474;9.416;2023-04-24T05:02:50;1.53;;;1.53;;
11267;SDS011;49397;47.474;9.416;2023-04-24T05:05:16;1.50;;;1.50;;
11267;SDS011;49397;47.474;9.416;2023-04-24T05:07:42;1.87;;;1.77;;
11267;SDS011;49397;47.474;9.416;2023-04-24T05:10:08;1.60;;;1.50;;
11267;SDS011;49397;47.474;9.416;2023-04-24T05:12:34;2.00;;;1.90;;
11267;SDS011;49397;47.474;9.416;2023-04-24T05:14:59;1.87;;;1.87;;
11267;SDS011;49397;47.474;9.416;2023-04-24T05:17:24;1.90;;;1.80;;
11267;SDS011;49397;47.474;9.416;2023-04-24T05:19:51;1.60;;;1.60;;
11267;SDS011;49397;47.474;9.416;2023-04-24T05:22:16;1.50;;;1.50;;
11267;SDS011;49397;47.474;9.416;2023-04-24T05:24:43;1.60;;;1.60;;
11267;SDS011;49397;47.474;9.416;2023-04-24T05:27:09;1.80;;;1.70;;
11267;SDS011;49397;47.474;9.416;2023-04-24T05:29:34;2.30;;;1.73;;
11267;SDS011;49397;47.474;9.416;2023-04-24T05:32:00;1.70;;;1.70;;
11267;SDS011;49397;47.474;9.416;2023-04-24T05:34:25;2.20;;;2.00;;
11267;SDS011;49397;47.474;9.416;2023-04-24T05:36:51;1.67;;;1.67;;
11267;SDS011;49397;47.474;9.416;2023-04-24T05:39:16;1.80;;;1.77;;
11267;SDS011;49397;47.474;9.416;2023-04-24T05:41:42;1.70;;;1.70;;
11267;SDS011;49397;47.474;9.416;2023-04-24T05:44:07;2.77;;;1.80;;
11267;SDS011;49397;47.474;9.416;2023-04-24T05:46:33;1.50;;;1.50;;
11267;SDS011;49397;47.474;9.416;2023-04-24T05:48:58;1.80;;;1.80;;
11267;SDS011;49397;47.474;9.416;2023-04-24T05:51:23;2.20;;;2.10;;
11267;SDS011;49397;47.474;9.416;2023-04-24T05:53:49;2.13;;;1.80;;
11267;SDS011;49397;47.474;9.416;2023-04-24T05:56:14;1.80;;;1.73;;
11267;SDS011;49397;47.474;9.416;2023-04-24T05:58:40;1.90;;;1.80;;
11267;SDS011;49397;47.474;9.416;2023-04-24T06:01:06;1.53;;;1.53;;
11267;SDS011;49397;47.474;9.416;2023-04-24T06:03:31;1.80;;;1.70;;
11267;SDS011;49397;47.474;9.416;2023-04-24T06:05:56;1.70;;;1.70;;
11267;SDS011;49397;47.474;9.416;2023-04-24T06:08:22;2.20;;;2.10;;
11267;SDS011;49397;47.474;9.416;2023-04-24T06:10:47;2.00;;;2.00;;
11267;SDS011;49397;47.474;9.416;2023-04-24T06:13:12;2.10;;;1.90;;
11267;SDS011;49397;47.474;9.416;2023-04-24T06:15:38;2.07;;;1.97;;
11267;SDS011;49397;47.474;9.416;2023-04-24T06:18:03;2.43;;;2.20;;
11267;SDS011;49397;47.474;9.416;2023-04-24T06:20:28;2.10;;;2.00;;
11267;SDS011;49397;47.474;9.416;2023-04-24T06:22:54;2.00;;;1.90;;
11267;SDS011;49397;47.474;9.416;2023-04-24T06:25:19;2.27;;;2.07;;
11267;SDS011;49397;47.474;9.416;2023-04-24T06:27:45;2.60;;;2.40;;
11267;SDS011;49397;47.474;9.416;2023-04-24T06:30:10;3.23;;;2.20;;
11267;SDS011;49397;47.474;9.416;2023-04-24T06:32:36;2.30;;;2.20;;
11267;SDS011;49397;47.474;9.416;2023-04-24T06:35:01;2.80;;;2.60;;
11267;SDS011;49397;47.474;9.416;2023-04-24T06:37:27;2.70;;;2.50;;
11267;SDS011;49397;47.474;9.416;2023-04-24T06:39:52;2.93;;;2.73;;
11267;SDS011;49397;47.474;9.416;2023-04-24T06:42:17;2.40;;;2.30;;
11267;SDS011;49397;47.474;9.416;2023-04-24T06:44:45;2.60;;;2.17;;
11267;SDS011;49397;47.474;9.416;2023-04-24T06:47:10;2.57;;;2.47;;
11267;SDS011;49397;47.474;9.416;2023-04-24T06:49:37;3.50;;;2.70;;
11267;SDS011;49397;47.474;9.416;2023-04-24T06:52:03;8.27;;;4.33;;
11267;SDS011;49397;47.474;9.416;2023-04-24T06:54:28;2.57;;;2.37;;
11267;SDS011;49397;47.474;9.416;2023-04-24T06:56:54;2.97;;;2.80;;
11267;SDS011;49397;47.474;9.416;2023-04-24T06:59:20;2.30;;;2.20;;
11267;SDS011;49397;47.474;9.416;2023-04-24T07:01:45;2.70;;;2.50;;
11267;SDS011;49397;47.474;9.416;2023-04-24T07:04:11;2.77;;;2.50;;
11267;SDS011;49397;47.474;9.416;2023-04-24T07:06:38;2.60;;;2.40;;
11267;SDS011;49397;47.474;9.416;2023-04-24T07:09:04;2.60;;;2.50;;
11267;SDS011;49397;47.474;9.416;2023-04-24T07:11:29;2.30;;;2.17;;
11267;SDS011;49397;47.474;9.416;2023-04-24T07:13:55;2.40;;;2.20;;
11267;SDS011;49397;47.474;9.416;2023-04-24T07:16:20;3.40;;;2.40;;
11267;SDS011;49397;47.474;9.416;2023-04-24T07:18:46;2.10;;;2.00;;
11267;SDS011;49397;47.474;9.416;2023-04-24T07:21:11;2.77;;;2.57;;
11267;SDS011;49397;47.474;9.416;2023-04-24T07:23:36;2.10;;;2.00;;
11267;SDS011;49397;47.474;9.416;2023-04-24T07:26:02;2.50;;;2.40;;
11267;SDS011;49397;47.474;9.416;2023-04-24T07:28:27;2.33;;;2.20;;
11267;SDS011;49397;47.474;9.416;2023-04-24T07:30:56;1.97;;;1.87;;
11267;SDS011;49397;47.474;9.416;2023-04-24T07:33:22;2.70;;;1.90;;
11267;SDS011;49397;47.474;9.416;2023-04-24T07:35:47;2.20;;;2.10;;
11267;SDS011;49397;47.474;9.416;2023-04-24T07:38:12;1.77;;;1.73;;
11267;SDS011;49397;47.474;9.416;2023-04-24T07:40:38;1.80;;;1.80;;
11267;SDS011;49397;47.474;9.416;2023-04-24T07:43:03;2.40;;;2.20;;
11267;SDS011;49397;47.474;9.416;2023-04-24T07:45:28;1.70;;;1.70;;
11267;SDS011;49397;47.474;9.416;2023-04-24T07:47:54;1.67;;;1.63;;
11267;SDS011;49397;47.474;9.416;2023-04-24T07:50:19;2.13;;;2.03;;
11267;SDS011;49397;47.474;9.416;2023-04-24T07:52:45;2.10;;;2.00;;
11267;SDS011;49397;47.474;9.416;2023-04-24T07:55:10;2.20;;;2.00;;
11267;SDS011;49397;47.474;9.416;2023-04-24T07:57:36;1.83;;;1.80;;
11267;SDS011;49397;47.474;9.416;2023-04-24T08:00:02;2.10;;;2.00;;
11267;SDS011;49397;47.474;9.416;2023-04-24T08:02:28;1.80;;;1.80;;
11267;SDS011;49397;47.474;9.416;2023-04-24T08:04:54;2.20;;;2.00;;
11267;SDS011;49397;47.474;9.416;2023-04-24T08:07:20;1.90;;;1.80;;
11267;SDS011;49397;47.474;9.416;2023-04-24T08:09:45;2.07;;;1.97;;
11267;SDS011;49397;47.474;9.416;2023-04-24T08:12:10;2.23;;;2.13;;
11267;SDS011;49397;47.474;9.416;2023-04-24T08:14:36;1.70;;;1.70;;
11267;SDS011;49397;47.474;9.416;2023-04-24T08:17:01;3.60;;;1.80;;
11267;SDS011;49397;47.474;9.416;2023-04-24T08:19:27;2.20;;;2.10;;
11267;SDS011;49397;47.474;9.416;2023-04-24T08:21:53;2.30;;;2.20;;
11267;SDS011;49397;47.474;9.416;2023-04-24T08:24:18;2.40;;;2.30;;
11267;SDS011;49397;47.474;9.416;2023-04-24T08:26:43;2.30;;;2.20;;
11267;SDS011;49397;47.474;9.416;2023-04-24T08:29:09;2.00;;;1.90;;
11267;SDS011;49397;47.474;9.416;2023-04-24T08:31:34;2.30;;;2.20;;
11267;SDS011;49397;47.474;9.416;2023-04-24T08:34:00;2.73;;;2.53;;
11267;SDS011;49397;47.474;9.416;2023-04-24T08:36:26;2.30;;;2.10;;
11267;SDS011;49397;47.474;9.416;2023-04-24T08:38:51;2.10;;;2.00;;
11267;SDS011;49397;47.474;9.416;2023-04-24T08:41:17;2.60;;;2.40;;
11267;SDS011;49397;47.474;9.416;2023-04-24T08:43:43;2.43;;;2.33;;
11267;SDS011;49397;47.474;9.416;2023-04-24T08:46:11;2.40;;;2.30;;
11267;SDS011;49397;47.474;9.416;2023-04-24T08:48:37;2.30;;;2.20;;
11267;SDS011;49397;47.474;9.416;2023-04-24T08:51:03;2.57;;;2.37;;
11267;SDS011;49397;47.474;9.416;2023-04-24T08:53:31;2.30;;;2.10;;
11267;SDS011;49397;47.474;9.416;2023-04-24T08:55:57;2.37;;;2.27;;
11267;SDS011;49397;47.474;9.416;2023-04-24T08:58:25;2.30;;;2.17;;
11267;SDS011;49397;47.474;9.416;2023-04-24T09:00:51;3.30;;;2.40;;
11267;SDS011;49397;47.474;9.416;2023-04-24T09:03:19;2.50;;;2.30;;
11267;SDS011;49397;47.474;9.416;2023-04-24T09:05:46;2.90;;;2.70;;
11267;SDS011;49397;47.474;9.416;2023-04-24T09:08:12;3.40;;;3.07;;
11267;SDS011;49397;47.474;9.416;2023-04-24T09:10:39;3.40;;;3.10;;
11267;SDS011;49397;47.474;9.416;2023-04-24T09:13:04;2.60;;;2.50;;
11267;SDS011;49397;47.474;9.416;2023-04-24T09:15:30;2.67;;;2.57;;
11267;SDS011;49397;47.474;9.416;2023-04-24T09:17:55;5.53;;;3.33;;
11267;SDS011;49397;47.474;9.416;2023-04-24T09:20:21;2.93;;;2.77;;
11267;SDS011;49397;47.474;9.416;2023-04-24T09:22:46;4.93;;;3.00;;
11267;SDS011;49397;47.474;9.416;2023-04-24T09:25:12;5.70;;;3.30;;
11267;SDS011;49397;47.474;9.416;2023-04-24T09:27:41;3.50;;;3.00;;
11267;SDS011;49397;47.474;9.416;2023-04-24T09:30:07;3.80;;;3.47;;
11267;SDS011;49397;47.474;9.416;2023-04-24T09:32:33;3.30;;;2.90;;
11267;SDS011;49397;47.474;9.416;2023-04-24T09:35:09;3.47;;;3.17;;
11267;SDS011;49397;47.474;9.416;2023-04-24T09:37:35;8.17;;;3.80;;
11267;SDS011;49397;47.474;9.416;2023-04-24T09:42:53;5.63;;;3.53;;
11267;SDS011;49397;47.474;9.416;2023-04-24T09:45:18;4.30;;;3.03;;
11267;SDS011;49397;47.474;9.416;2023-04-24T09:47:44;4.07;;;3.67;;
11267;SDS011;49397;47.474;9.416;2023-04-24T09:50:14;3.90;;;3.60;;
11267;SDS011;49397;47.474;9.416;2023-04-24T09:53:02;4.30;;;3.90;;
11267;SDS011;49397;47.474;9.416;2023-04-24T09:55:25;4.40;;;4.10;;
11267;SDS011;49397;47.474;9.416;2023-04-24T09:57:54;4.03;;;3.70;;
11267;SDS011;49397;47.474;9.416;2023-04-24T10:00:24;6.07;;;3.33;;
11267;SDS011;49397;47.474;9.416;2023-04-24T10:02:50;4.67;;;3.63;;
11267;SDS011;49397;47.474;9.416;2023-04-24T10:05:17;3.90;;;3.60;;
11267;SDS011;49397;47.474;9.416;2023-04-24T10:07:43;4.67;;;4.27;;
11267;SDS011;49397;47.474;9.416;2023-04-24T10:10:08;8.27;;;4.13;;
11267;SDS011;49397;47.474;9.416;2023-04-24T10:12:34;4.83;;;3.53;;
11267;SDS011;49397;47.474;9.416;2023-04-24T10:14:59;5.27;;;3.97;;
11267;SDS011;49397;47.474;9.416;2023-04-24T10:17:26;5.50;;;3.70;;
11267;SDS011;49397;47.474;9.416;2023-04-24T10:19:52;4.87;;;4.10;;
11267;SDS011;49397;47.474;9.416;2023-04-24T10:22:18;6.63;;;4.63;;
11267;SDS011;49397;47.474;9.416;2023-04-24T10:24:43;5.27;;;4.17;;
11267;SDS011;49397;47.474;9.416;2023-04-24T10:27:09;4.73;;;3.63;;
11267;SDS011;49397;47.474;9.416;2023-04-24T10:29:35;4.07;;;3.63;;
11267;SDS011;49397;47.474;9.416;2023-04-24T10:32:00;3.53;;;3.23;;
11267;SDS011;49397;47.474;9.416;2023-04-24T10:34:26;4.97;;;4.57;;
11267;SDS011;49397;47.474;9.416;2023-04-24T10:36:52;4.23;;;3.93;;
11267;SDS011;49397;47.474;9.416;2023-04-24T10:39:19;5.70;;;4.37;;
11267;SDS011;49397;47.474;9.416;2023-04-24T10:41:45;3.63;;;3.33;;
11267;SDS011;49397;47.474;9.416;2023-04-24T10:44:13;6.73;;;3.83;;
11267;SDS011;49397;47.474;9.416;2023-04-24T10:46:39;7.13;;;3.53;;
11267;SDS011;49397;47.474;9.416;2023-04-24T10:49:07;6.27;;;3.27;;
11267;SDS011;49397;47.474;9.416;2023-04-24T10:51:50;4.53;;;3.40;;
11267;SDS011;49397;47.474;9.416;2023-04-24T10:54:34;4.07;;;3.77;;
11267;SDS011;49397;47.474;9.416;2023-04-24T11:02:35;4.97;;;3.70;;
11267;SDS011;49397;47.474;9.416;2023-04-24T11:05:03;5.03;;;3.40;;
11267;SDS011;49397;47.474;9.416;2023-04-24T11:07:29;4.70;;;3.70;;
11267;SDS011;49397;47.474;9.416;2023-04-24T11:10:00;4.23;;;3.70;;
11267;SDS011;49397;47.474;9.416;2023-04-24T11:12:26;5.03;;;3.70;;
11267;SDS011;49397;47.474;9.416;2023-04-24T11:19:55;3.80;;;3.40;;
11267;SDS011;49397;47.474;9.416;2023-04-24T11:22:25;5.93;;;3.50;;
11267;SDS011;49397;47.474;9.416;2023-04-24T11:24:53;5.30;;;3.23;;
11267;SDS011;49397;47.474;9.416;2023-04-24T11:27:19;3.70;;;3.00;;
11267;SDS011;49397;47.474;9.416;2023-04-24T11:32:30;5.03;;;3.13;;
11267;SDS011;49397;47.474;9.416;2023-04-24T11:34:56;4.07;;;3.10;;
11267;SDS011;49397;47.474;9.416;2023-04-24T11:37:23;3.17;;;2.80;;
11267;SDS011;49397;47.474;9.416;2023-04-24T11:39:58;3.40;;;3.10;;
11267;SDS011;49397;47.474;9.416;2023-04-24T11:42:23;4.20;;;2.50;;
11267;SDS011;49397;47.474;9.416;2023-04-24T11:44:53;5.17;;;3.20;;
11267;SDS011;49397;47.474;9.416;2023-04-24T11:47:27;2.93;;;2.73;;
11267;SDS011;49397;47.474;9.416;2023-04-24T11:49:52;4.17;;;3.10;;
11267;SDS011;49397;47.474;9.416;2023-04-24T11:52:17;3.40;;;3.20;;
11267;SDS011;49397;47.474;9.416;2023-04-24T11:54:49;4.27;;;3.07;;
11267;SDS011;49397;47.474;9.416;2023-04-24T11:57:15;3.10;;;2.80;;
11267;SDS011;49397;47.474;9.416;2023-04-24T11:59:40;5.07;;;2.80;;
11267;SDS011;49397;47.474;9.416;2023-04-24T12:02:06;3.00;;;2.80;;
11267;SDS011;49397;47.474;9.416;2023-04-24T12:04:38;4.27;;;2.93;;
11267;SDS011;49397;47.474;9.416;2023-04-24T12:07:03;5.07;;;3.20;;
11267;SDS011;49397;47.474;9.416;2023-04-24T12:09:46;5.20;;;3.50;;
11267;SDS011;49397;47.474;9.416;2023-04-24T12:12:13;3.80;;;3.13;;
11267;SDS011;49397;47.474;9.416;2023-04-24T12:14:42;3.00;;;2.80;;
11267;SDS011;49397;47.474;9.416;2023-04-24T12:17:07;4.30;;;3.23;;
11267;SDS011;49397;47.474;9.416;2023-04-24T12:19:32;2.87;;;2.67;;
11267;SDS011;49397;47.474;9.416;2023-04-24T12:22:04;4.43;;;3.10;;
11267;SDS011;49397;47.474;9.416;2023-04-24T12:24:30;3.23;;;3.00;;
11267;SDS011;49397;47.474;9.416;2023-04-24T12:26:56;5.27;;;2.90;;
11267;SDS011;49397;47.474;9.416;2023-04-24T12:29:22;3.53;;;3.30;;
11267;SDS011;49397;47.474;9.416;2023-04-24T12:31:47;4.80;;;3.30;;
11267;SDS011;49397;47.474;9.416;2023-04-24T12:34:19;5.67;;;3.00;;
11267;SDS011;49397;47.474;9.416;2023-04-24T12:36:45;4.57;;;3.10;;
11267;SDS011;49397;47.474;9.416;2023-04-24T12:39:18;3.37;;;3.13;;
11267;SDS011;49397;47.474;9.416;2023-04-24T12:41:50;4.70;;;3.20;;
11267;SDS011;49397;47.474;9.416;2023-04-24T12:44:19;4.00;;;3.07;;
11267;SDS011;49397;47.474;9.416;2023-04-24T12:46:44;5.27;;;3.30;;
11267;SDS011;49397;47.474;9.416;2023-04-24T12:49:10;4.93;;;3.03;;
11267;SDS011;49397;47.474;9.416;2023-04-24T12:51:35;3.10;;;2.80;;
11267;SDS011;49397;47.474;9.416;2023-04-24T12:54:01;3.47;;;3.17;;
11267;SDS011;49397;47.474;9.416;2023-04-24T12:56:26;3.67;;;3.27;;
11267;SDS011;49397;47.474;9.416;2023-04-24T12:58:51;3.57;;;2.83;;
11267;SDS011;49397;47.474;9.416;2023-04-24T13:01:17;3.30;;;3.00;;
11267;SDS011;49397;47.474;9.416;2023-04-24T13:03:42;3.40;;;3.00;;
11267;SDS011;49397;47.474;9.416;2023-04-24T13:06:08;2.70;;;2.50;;
11267;SDS011;49397;47.474;9.416;2023-04-24T13:08:33;3.57;;;3.03;;
11267;SDS011;49397;47.474;9.416;2023-04-24T13:10:59;3.73;;;3.23;;
11267;SDS011;49397;47.474;9.416;2023-04-24T13:13:24;2.60;;;2.40;;
11267;SDS011;49397;47.474;9.416;2023-04-24T13:15:50;3.20;;;2.57;;
11267;SDS011;49397;47.474;9.416;2023-04-24T13:18:15;3.10;;;2.60;;
11267;SDS011;49397;47.474;9.416;2023-04-24T13:20:40;4.33;;;2.60;;
11267;SDS011;49397;47.474;9.416;2023-04-24T13:23:06;3.77;;;3.47;;
11267;SDS011;49397;47.474;9.416;2023-04-24T13:25:34;3.20;;;2.90;;
11267;SDS011;49397;47.474;9.416;2023-04-24T13:27:59;3.13;;;2.83;;
11267;SDS011;49397;47.474;9.416;2023-04-24T13:30:25;3.37;;;3.17;;
11267;SDS011;49397;47.474;9.416;2023-04-24T13:32:50;3.03;;;2.83;;
11267;SDS011;49397;47.474;9.416;2023-04-24T13:35:15;3.40;;;2.87;;
11267;SDS011;49397;47.474;9.416;2023-04-24T13:37:41;2.90;;;2.70;;
11267;SDS011;49397;47.474;9.416;2023-04-24T13:40:06;3.93;;;2.70;;
11267;SDS011;49397;47.474;9.416;2023-04-24T13:42:32;3.03;;;2.83;;
11267;SDS011;49397;47.474;9.416;2023-04-24T13:44:57;4.23;;;3.00;;
11267;SDS011;49397;47.474;9.416;2023-04-24T13:47:22;2.80;;;2.50;;
11267;SDS011;49397;47.474;9.416;2023-04-24T13:49:48;3.53;;;3.23;;
11267;SDS011;49397;47.474;9.416;2023-04-24T13:52:13;2.83;;;2.50;;
11267;SDS011;49397;47.474;9.416;2023-04-24T13:54:39;3.07;;;2.83;;
11267;SDS011;49397;47.474;9.416;2023-04-24T13:57:04;3.27;;;2.63;;
11267;SDS011;49397;47.474;9.416;2023-04-24T13:59:29;3.33;;;3.03;;
11267;SDS011;49397;47.474;9.416;2023-04-24T14:01:55;3.20;;;2.90;;
11267;SDS011;49397;47.474;9.416;2023-04-24T14:04:20;4.70;;;3.00;;
11267;SDS011;49397;47.474;9.416;2023-04-24T14:06:46;2.87;;;2.67;;
11267;SDS011;49397;47.474;9.416;2023-04-24T14:09:11;4.17;;;2.80;;
11267;SDS011;49397;47.474;9.416;2023-04-24T14:11:37;2.63;;;2.43;;
11267;SDS011;49397;47.474;9.416;2023-04-24T14:14:03;3.30;;;2.97;;
11267;SDS011;49397;47.474;9.416;2023-04-24T14:16:28;3.17;;;2.87;;
11267;SDS011;49397;47.474;9.416;2023-04-24T14:18:53;3.30;;;3.10;;
11267;SDS011;49397;47.474;9.416;2023-04-24T14:21:19;3.90;;;3.10;;
11267;SDS011;49397;47.474;9.416;2023-04-24T14:23:44;3.20;;;2.90;;
11267;SDS011;49397;47.474;9.416;2023-04-24T14:26:10;3.60;;;3.30;;
11267;SDS011;49397;47.474;9.416;2023-04-24T14:28:35;4.40;;;3.50;;
11267;SDS011;49397;47.474;9.416;2023-04-24T14:31:01;3.20;;;2.97;;
11267;SDS011;49397;47.474;9.416;2023-04-24T14:33:26;2.90;;;2.70;;
11267;SDS011;49397;47.474;9.416;2023-04-24T14:35:51;3.00;;;2.53;;
11267;SDS011;49397;47.474;9.416;2023-04-24T14:38:17;5.63;;;3.40;;
11267;SDS011;49397;47.474;9.416;2023-04-24T14:40:42;4.47;;;2.70;;
11267;SDS011;49397;47.474;9.416;2023-04-24T14:43:07;5.07;;;4.57;;
11267;SDS011;49397;47.474;9.416;2023-04-24T14:45:33;3.30;;;2.90;;
11267;SDS011;49397;47.474;9.416;2023-04-24T14:47:58;3.30;;;3.00;;
11267;SDS011;49397;47.474;9.416;2023-04-24T14:50:23;2.80;;;2.50;;
11267;SDS011;49397;47.474;9.416;2023-04-24T14:52:53;3.60;;;3.30;;
11267;SDS011;49397;47.474;9.416;2023-04-24T14:55:18;3.13;;;2.73;;
11267;SDS011;49397;47.474;9.416;2023-04-24T14:57:43;2.90;;;2.57;;